sensor_id;sensor_type;location;lat;lon;timestamp;P1;durP1;ratioP1;P2;durP2;ratioP2
57707;SDS011;43540;51.690;9.562;2023-07-13T14:31:02;7.10;;;2.97;;
57707;SDS011;43540;51.690;9.562;2023-07-13T14:33:29;2.85;;;2.45;;
57707;SDS011;43540;51.690;9.562;2023-07-13T14:35:56;5.05;;;2.83;;
57707;SDS011;43540;51.690;9.562;2023-07-13T14:38:22;4.28;;;3.00;;
57707;SDS011;43540;51.690;9.562;2023-07-13T14:40:49;3.58;;;2.70;;
57707;SDS011;43540;51.690;9.562;2023-07-13T14:43:16;4.13;;;2.72;;
57707;SDS011;43540;51.690;9.562;2023-07-13T14:45:47;4.57;;;3.00;;
57707;SDS011;43540;51.690;9.562;2023-07-13T14:48:23;3.38;;;2.40;;
57707;SDS011;43540;51.690;9.562;2023-07-13T14:53:22;4.97;;;2.60;;
57707;SDS011;43540;51.690;9.562;2023-07-13T14:55:50;3.33;;;2.40;;
57707;SDS011;43540;51.690;9.562;2023-07-13T14:58:17;4.65;;;2.75;;
57707;SDS011;43540;51.690;9.562;2023-07-13T15:00:44;4.82;;;2.50;;
57707;SDS011;43540;51.690;9.562;2023-07-13T15:03:23;4.25;;;2.70;;
57707;SDS011;43540;51.690;9.562;2023-07-13T15:05:51;7.38;;;2.90;;
57707;SDS011;43540;51.690;9.562;2023-07-13T15:08:19;10.15;;;2.47;;
57707;SDS011;43540;51.690;9.562;2023-07-13T15:10:45;6.40;;;3.30;;
57707;SDS011;43540;51.690;9.562;2023-07-13T15:13:16;12.48;;;3.30;;
57707;SDS011;43540;51.690;9.562;2023-07-13T15:15:49;6.13;;;2.45;;
57707;SDS011;43540;51.690;9.562;2023-07-13T15:18:19;4.50;;;2.55;;
57707;SDS011;43540;51.690;9.562;2023-07-13T15:20:47;3.33;;;2.22;;
57707;SDS011;43540;51.690;9.562;2023-07-13T15:23:16;5.18;;;2.53;;
57707;SDS011;43540;51.690;9.562;2023-07-13T15:25:44;4.57;;;2.65;;
57707;SDS011;43540;51.690;9.562;2023-07-13T15:28:12;5.70;;;2.17;;
57707;SDS011;43540;51.690;9.562;2023-07-13T15:30:40;3.40;;;1.92;;
57707;SDS011;43540;51.690;9.562;2023-07-13T15:33:12;4.25;;;2.22;;
57707;SDS011;43540;51.690;9.562;2023-07-13T15:38:14;3.33;;;1.90;;
57707;SDS011;43540;51.690;9.562;2023-07-13T15:40:42;5.40;;;2.25;;
57707;SDS011;43540;51.690;9.562;2023-07-13T15:43:10;4.85;;;2.30;;
57707;SDS011;43540;51.690;9.562;2023-07-13T15:45:38;3.42;;;2.17;;
57707;SDS011;43540;51.690;9.562;2023-07-13T15:48:15;4.05;;;2.20;;
57707;SDS011;43540;51.690;9.562;2023-07-13T15:50:45;2.95;;;1.85;;
57707;SDS011;43540;51.690;9.562;2023-07-13T15:53:29;4.28;;;2.80;;
57707;SDS011;43540;51.690;9.562;2023-07-13T15:55:59;7.50;;;3.10;;
57707;SDS011;43540;51.690;9.562;2023-07-13T15:58:28;3.95;;;2.78;;
57707;SDS011;43540;51.690;9.562;2023-07-13T16:00:55;7.22;;;3.00;;
57707;SDS011;43540;51.690;9.562;2023-07-13T16:03:21;7.60;;;3.03;;
57707;SDS011;43540;51.690;9.562;2023-07-13T16:05:49;5.88;;;3.28;;
57707;SDS011;43540;51.690;9.562;2023-07-13T16:08:27;4.10;;;2.95;;
57707;SDS011;43540;51.690;9.562;2023-07-13T16:10:56;4.35;;;3.10;;
57707;SDS011;43540;51.690;9.562;2023-07-13T16:13:25;4.03;;;3.20;;
57707;SDS011;43540;51.690;9.562;2023-07-13T16:15:52;7.75;;;3.00;;
57707;SDS011;43540;51.690;9.562;2023-07-13T16:18:22;5.45;;;3.10;;
57707;SDS011;43540;51.690;9.562;2023-07-13T16:20:49;5.97;;;3.30;;
57707;SDS011;43540;51.690;9.562;2023-07-13T16:23:16;7.38;;;3.30;;
57707;SDS011;43540;51.690;9.562;2023-07-13T16:25:47;8.70;;;3.63;;
57707;SDS011;43540;51.690;9.562;2023-07-13T16:28:15;6.63;;;3.40;;
57707;SDS011;43540;51.690;9.562;2023-07-13T16:30:42;5.63;;;3.53;;
57707;SDS011;43540;51.690;9.562;2023-07-13T16:33:08;6.47;;;3.70;;
57707;SDS011;43540;51.690;9.562;2023-07-13T16:35:36;6.78;;;3.60;;
57707;SDS011;43540;51.690;9.562;2023-07-13T16:38:11;5.13;;;3.58;;
57707;SDS011;43540;51.690;9.562;2023-07-13T16:40:44;4.93;;;3.33;;
57707;SDS011;43540;51.690;9.562;2023-07-13T16:43:15;7.63;;;4.03;;
57707;SDS011;43540;51.690;9.562;2023-07-13T16:45:48;5.45;;;3.75;;
57707;SDS011;43540;51.690;9.562;2023-07-13T16:48:17;7.90;;;4.35;;
57707;SDS011;43540;51.690;9.562;2023-07-13T16:50:50;7.05;;;3.88;;
57707;SDS011;43540;51.690;9.562;2023-07-13T16:53:27;5.57;;;4.07;;
57707;SDS011;43540;51.690;9.562;2023-07-13T16:55:55;6.53;;;4.15;;
